createdAt,value
2022-08-26T00:09:39.013Z,967.16
2022-08-26T00:19:36.971Z,967.14
2022-08-26T00:29:37.470Z,967.05
2022-08-26T00:39:37.284Z,967.05
2022-08-26T00:49:37.439Z,967.03
2022-08-26T00:59:38.928Z,967.07
2022-08-26T01:09:39.728Z,967.13
2022-08-26T01:19:37.907Z,967.08
2022-08-26T01:29:38.127Z,967.18
2022-08-26T01:39:40.241Z,967.15
2022-08-26T01:49:38.480Z,967.11
2022-08-26T01:59:38.660Z,967.08
2022-08-26T02:09:41.364Z,967.18
2022-08-26T02:19:38.955Z,967.23
2022-08-26T02:29:39.104Z,967.24
2022-08-26T02:39:39.266Z,967.20
2022-08-26T02:49:39.428Z,967.19
2022-08-26T02:59:39.723Z,967.13
2022-08-26T03:09:39.773Z,967.18
2022-08-26T03:19:39.941Z,967.08
2022-08-26T03:29:40.121Z,967.02
2022-08-26T03:39:40.258Z,967.02
2022-08-26T03:49:40.469Z,966.98
2022-08-26T03:59:41.310Z,966.96
2022-08-26T04:09:40.771Z,967.01
2022-08-26T04:19:41.031Z,967.09
2022-08-26T04:29:41.079Z,967.09
2022-08-26T04:39:41.253Z,967.09
2022-08-26T04:49:41.456Z,967.03
2022-08-26T04:59:41.645Z,967.02
2022-08-26T05:09:41.828Z,967.02
2022-08-26T05:19:42.753Z,967.20
2022-08-26T05:29:42.106Z,967.25
2022-08-26T05:39:43.417Z,967.19
2022-08-26T05:49:43.743Z,967.23
2022-08-26T05:59:43.642Z,967.21
2022-08-26T06:09:42.829Z,967.19
2022-08-26T06:19:43.010Z,967.23
2022-08-26T06:29:43.177Z,967.41
2022-08-26T06:39:43.335Z,967.46
2022-08-26T06:49:44.288Z,967.43
2022-08-26T06:59:43.638Z,967.37
2022-08-26T07:09:43.797Z,967.44
2022-08-26T07:19:43.959Z,967.64
2022-08-26T07:29:44.119Z,967.48
2022-08-26T07:39:45.356Z,967.54
2022-08-26T07:49:44.767Z,967.49
2022-08-26T07:59:44.686Z,967.57
2022-08-26T08:09:44.967Z,967.58
2022-08-26T08:19:45.035Z,967.62
2022-08-26T08:29:45.195Z,967.49
2022-08-26T08:39:45.361Z,967.46
2022-08-26T08:49:45.522Z,967.43
2022-08-26T08:59:45.748Z,967.32
2022-08-26T09:09:45.867Z,967.29
2022-08-26T09:19:46.063Z,967.31
2022-08-26T09:29:46.241Z,967.13
2022-08-26T09:39:46.530Z,967.01
2022-08-26T09:49:46.597Z,966.90
2022-08-26T09:59:46.790Z,966.89
2022-08-26T10:09:46.970Z,966.89
2022-08-26T10:19:56.974Z,966.87
2022-08-26T10:29:48.271Z,966.62
2022-08-26T10:39:47.377Z,966.55
2022-08-26T10:49:47.515Z,966.61
2022-08-26T10:59:47.848Z,966.53
2022-08-26T11:09:47.837Z,966.30
2022-08-26T11:20:00.309Z,966.21
2022-08-26T11:29:49.296Z,966.05
2022-08-26T11:39:54.044Z,966.06
2022-08-26T11:49:49.509Z,966.07
2022-08-26T11:59:48.723Z,966.18
2022-08-26T12:09:48.899Z,966.05
2022-08-26T12:19:49.065Z,966.07
2022-08-26T12:29:49.222Z,966.07
2022-08-26T12:39:49.462Z,965.93
2022-08-26T12:49:49.563Z,965.95
2022-08-26T12:59:49.715Z,965.77
2022-08-26T13:09:49.904Z,965.61
2022-08-26T13:19:50.087Z,965.55
2022-08-26T13:29:50.484Z,965.39
2022-08-26T13:39:50.477Z,965.40
2022-08-26T13:49:50.564Z,965.17
2022-08-26T13:59:51.009Z,965.28
2022-08-26T14:09:50.987Z,965.13
2022-08-26T14:19:51.048Z,965.04
2022-08-26T14:29:51.216Z,965.00
2022-08-26T14:39:51.438Z,964.93
2022-08-26T14:49:51.509Z,965.03
2022-08-26T14:59:51.704Z,965.06
2022-08-26T15:09:52.038Z,965.01
2022-08-26T15:19:52.098Z,965.17
2022-08-26T15:29:52.268Z,965.10
2022-08-26T15:39:52.458Z,965.00
2022-08-26T15:49:52.634Z,965.06
2022-08-26T15:59:52.805Z,965.02
2022-08-26T16:09:54.131Z,965.12
2022-08-26T16:19:53.136Z,965.24
2022-08-26T16:29:53.286Z,965.34
2022-08-26T16:39:53.670Z,965.51
2022-08-26T16:49:53.897Z,965.86
2022-08-26T16:59:53.795Z,965.96
2022-08-26T17:09:54.144Z,966.01
2022-08-26T17:19:53.983Z,965.83
2022-08-26T17:29:54.138Z,966.18
2022-08-26T17:39:54.436Z,966.34
2022-08-26T17:49:54.496Z,966.72
2022-08-26T17:59:54.659Z,966.77
2022-08-26T18:09:54.886Z,966.70
2022-08-26T18:19:55.062Z,966.74
2022-08-26T18:29:55.243Z,966.99
2022-08-26T18:39:55.433Z,967.02
2022-08-26T18:49:55.635Z,967.00
2022-08-26T18:59:55.819Z,967.38
2022-08-26T19:09:56.337Z,967.55
2022-08-26T19:19:56.222Z,967.70
2022-08-26T19:29:56.288Z,967.66
2022-08-26T19:39:56.550Z,967.59
2022-08-26T19:49:56.628Z,967.68
2022-08-26T19:59:56.820Z,967.38
2022-08-26T20:09:57.007Z,967.37
2022-08-26T20:19:57.198Z,967.26
2022-08-26T20:29:57.534Z,967.20
2022-08-26T20:39:57.652Z,967.30
2022-08-26T20:49:57.801Z,967.31
2022-08-26T20:59:57.992Z,967.44
2022-08-26T21:09:58.166Z,967.60
2022-08-26T21:19:58.333Z,967.75
2022-08-26T21:29:58.614Z,967.83
2022-08-26T21:39:58.759Z,967.79
2022-08-26T21:49:58.860Z,967.77
2022-08-26T21:59:58.929Z,967.80
2022-08-26T22:09:59.106Z,967.80
2022-08-26T22:19:59.262Z,967.92
2022-08-26T22:29:59.408Z,967.80
2022-08-26T22:39:59.622Z,967.77
2022-08-26T22:49:59.712Z,967.82
2022-08-26T22:59:59.880Z,967.93
2022-08-26T23:10:00.065Z,968.07
2022-08-26T23:20:00.231Z,967.90
2022-08-26T23:30:00.722Z,967.88
2022-08-26T23:40:00.727Z,967.98
2022-08-26T23:50:00.695Z,967.98
